sensor_id;sensor_type;location;lat;lon;timestamp;temperature;humidity
10249;DHT22;5169;50.560;9.714;2022-09-17T00:00:59;9.40;99.90
10249;DHT22;5169;50.560;9.714;2022-09-17T00:03:26;9.40;99.90
10249;DHT22;5169;50.560;9.714;2022-09-17T00:06:00;9.50;99.90
10249;DHT22;5169;50.560;9.714;2022-09-17T00:08:27;9.50;99.90
10249;DHT22;5169;50.560;9.714;2022-09-17T00:10:53;9.40;99.90
10249;DHT22;5169;50.560;9.714;2022-09-17T00:13:19;9.40;99.90
10249;DHT22;5169;50.560;9.714;2022-09-17T00:15:45;9.50;99.90
10249;DHT22;5169;50.560;9.714;2022-09-17T00:18:12;9.60;99.90
10249;DHT22;5169;50.560;9.714;2022-09-17T00:20:43;9.70;99.90
10249;DHT22;5169;50.560;9.714;2022-09-17T00:23:11;9.90;99.90
10249;DHT22;5169;50.560;9.714;2022-09-17T00:25:41;10.00;99.90
10249;DHT22;5169;50.560;9.714;2022-09-17T00:28:07;9.90;99.90
10249;DHT22;5169;50.560;9.714;2022-09-17T00:30:33;9.90;99.90
10249;DHT22;5169;50.560;9.714;2022-09-17T00:33:06;9.90;99.90
10249;DHT22;5169;50.560;9.714;2022-09-17T00:35:34;10.00;99.90
10249;DHT22;5169;50.560;9.714;2022-09-17T00:38:00;9.90;99.90
10249;DHT22;5169;50.560;9.714;2022-09-17T00:40:27;9.90;99.90
10249;DHT22;5169;50.560;9.714;2022-09-17T00:42:53;10.00;99.90
10249;DHT22;5169;50.560;9.714;2022-09-17T00:45:21;10.00;99.90
10249;DHT22;5169;50.560;9.714;2022-09-17T00:47:57;10.00;99.90
10249;DHT22;5169;50.560;9.714;2022-09-17T00:50:38;10.10;99.90
10249;DHT22;5169;50.560;9.714;2022-09-17T00:53:09;10.20;99.90
10249;DHT22;5169;50.560;9.714;2022-09-17T00:55:38;10.20;99.90
10249;DHT22;5169;50.560;9.714;2022-09-17T00:58:10;10.30;99.90
10249;DHT22;5169;50.560;9.714;2022-09-17T01:00:38;10.30;99.90
10249;DHT22;5169;50.560;9.714;2022-09-17T01:03:06;10.30;99.90
10249;DHT22;5169;50.560;9.714;2022-09-17T01:05:49;10.30;99.90
10249;DHT22;5169;50.560;9.714;2022-09-17T01:08:33;10.30;99.90
10249;DHT22;5169;50.560;9.714;2022-09-17T01:14:06;10.30;99.90
10249;DHT22;5169;50.560;9.714;2022-09-17T01:16:55;10.30;99.90
10249;DHT22;5169;50.560;9.714;2022-09-17T01:22:59;10.30;99.90
10249;DHT22;5169;50.560;9.714;2022-09-17T01:33:18;10.20;99.90
10249;DHT22;5169;50.560;9.714;2022-09-17T01:36:01;10.10;99.90
10249;DHT22;5169;50.560;9.714;2022-09-17T01:38:36;9.90;99.90
10249;DHT22;5169;50.560;9.714;2022-09-17T01:41:20;9.90;99.90
10249;DHT22;5169;50.560;9.714;2022-09-17T01:43:58;9.90;99.90
10249;DHT22;5169;50.560;9.714;2022-09-17T01:47:01;9.80;99.90
10249;DHT22;5169;50.560;9.714;2022-09-17T01:49:29;9.80;99.90
10249;DHT22;5169;50.560;9.714;2022-09-17T01:52:00;9.80;99.90
10249;DHT22;5169;50.560;9.714;2022-09-17T01:54:33;9.80;99.90
10249;DHT22;5169;50.560;9.714;2022-09-17T01:57:08;9.70;99.90
10249;DHT22;5169;50.560;9.714;2022-09-17T02:00:01;9.70;99.90
10249;DHT22;5169;50.560;9.714;2022-09-17T02:02:35;9.70;99.90
10249;DHT22;5169;50.560;9.714;2022-09-17T02:05:17;9.80;99.90
10249;DHT22;5169;50.560;9.714;2022-09-17T02:08:05;9.80;99.90
10249;DHT22;5169;50.560;9.714;2022-09-17T02:10:34;9.80;99.90
10249;DHT22;5169;50.560;9.714;2022-09-17T02:13:14;9.70;99.90
10249;DHT22;5169;50.560;9.714;2022-09-17T02:15:56;9.60;99.90
10249;DHT22;5169;50.560;9.714;2022-09-17T02:18:36;9.60;99.90
10249;DHT22;5169;50.560;9.714;2022-09-17T02:21:30;9.50;99.90
10249;DHT22;5169;50.560;9.714;2022-09-17T02:26:31;9.50;99.90
10249;DHT22;5169;50.560;9.714;2022-09-17T02:29:06;9.50;99.90
10249;DHT22;5169;50.560;9.714;2022-09-17T02:31:34;9.30;99.90
10249;DHT22;5169;50.560;9.714;2022-09-17T02:34:02;9.40;99.90
10249;DHT22;5169;50.560;9.714;2022-09-17T02:36:29;9.40;99.90
10249;DHT22;5169;50.560;9.714;2022-09-17T02:39:01;9.50;99.90
10249;DHT22;5169;50.560;9.714;2022-09-17T02:46:58;9.40;99.90
10249;DHT22;5169;50.560;9.714;2022-09-17T02:49:48;9.40;99.90
10249;DHT22;5169;50.560;9.714;2022-09-17T03:00:25;9.40;99.90
10249;DHT22;5169;50.560;9.714;2022-09-17T03:03:43;9.40;99.90
10249;DHT22;5169;50.560;9.714;2022-09-17T03:05:45;9.20;99.90
10249;DHT22;5169;50.560;9.714;2022-09-17T03:08:16;9.20;99.90
10249;DHT22;5169;50.560;9.714;2022-09-17T03:10:44;9.20;99.90
10249;DHT22;5169;50.560;9.714;2022-09-17T03:13:10;9.40;99.90
10249;DHT22;5169;50.560;9.714;2022-09-17T03:15:36;9.40;99.90
10249;DHT22;5169;50.560;9.714;2022-09-17T03:18:02;9.40;99.90
10249;DHT22;5169;50.560;9.714;2022-09-17T03:20:28;9.50;99.90
10249;DHT22;5169;50.560;9.714;2022-09-17T03:22:55;9.50;99.90
10249;DHT22;5169;50.560;9.714;2022-09-17T03:25:21;9.50;99.90
10249;DHT22;5169;50.560;9.714;2022-09-17T03:27:49;9.40;99.90
10249;DHT22;5169;50.560;9.714;2022-09-17T03:30:18;9.50;99.90
10249;DHT22;5169;50.560;9.714;2022-09-17T03:32:43;9.60;99.90
10249;DHT22;5169;50.560;9.714;2022-09-17T03:35:09;9.60;99.90
10249;DHT22;5169;50.560;9.714;2022-09-17T03:37:35;9.60;99.90
10249;DHT22;5169;50.560;9.714;2022-09-17T03:40:01;9.50;99.90
10249;DHT22;5169;50.560;9.714;2022-09-17T03:42:27;9.60;99.90
10249;DHT22;5169;50.560;9.714;2022-09-17T03:44:52;9.60;99.90
10249;DHT22;5169;50.560;9.714;2022-09-17T03:47:18;9.60;99.90
10249;DHT22;5169;50.560;9.714;2022-09-17T03:49:44;9.60;99.90
10249;DHT22;5169;50.560;9.714;2022-09-17T03:52:09;9.60;99.90
10249;DHT22;5169;50.560;9.714;2022-09-17T03:54:35;9.70;99.90
10249;DHT22;5169;50.560;9.714;2022-09-17T03:57:01;9.60;99.90
10249;DHT22;5169;50.560;9.714;2022-09-17T03:59:28;9.70;99.90
10249;DHT22;5169;50.560;9.714;2022-09-17T04:01:54;9.80;99.90
10249;DHT22;5169;50.560;9.714;2022-09-17T04:04:22;9.80;99.90
10249;DHT22;5169;50.560;9.714;2022-09-17T04:06:48;9.80;99.90
10249;DHT22;5169;50.560;9.714;2022-09-17T04:09:13;9.80;99.90
10249;DHT22;5169;50.560;9.714;2022-09-17T04:11:39;9.80;99.90
10249;DHT22;5169;50.560;9.714;2022-09-17T04:14:07;9.80;99.90
10249;DHT22;5169;50.560;9.714;2022-09-17T04:16:33;9.80;99.90
10249;DHT22;5169;50.560;9.714;2022-09-17T04:18:58;9.80;99.90
10249;DHT22;5169;50.560;9.714;2022-09-17T04:21:24;9.70;99.90
10249;DHT22;5169;50.560;9.714;2022-09-17T04:23:50;9.70;99.90
10249;DHT22;5169;50.560;9.714;2022-09-17T04:26:18;9.70;99.90
10249;DHT22;5169;50.560;9.714;2022-09-17T04:28:46;9.70;99.90
10249;DHT22;5169;50.560;9.714;2022-09-17T04:31:11;9.80;99.90
10249;DHT22;5169;50.560;9.714;2022-09-17T04:33:37;9.80;99.90
10249;DHT22;5169;50.560;9.714;2022-09-17T04:36:03;9.70;99.90
10249;DHT22;5169;50.560;9.714;2022-09-17T04:38:29;9.60;99.90
10249;DHT22;5169;50.560;9.714;2022-09-17T04:40:54;9.60;99.90
10249;DHT22;5169;50.560;9.714;2022-09-17T04:43:22;9.60;99.90
10249;DHT22;5169;50.560;9.714;2022-09-17T04:45:48;9.70;99.90
10249;DHT22;5169;50.560;9.714;2022-09-17T04:48:17;9.60;99.90
10249;DHT22;5169;50.560;9.714;2022-09-17T04:50:43;9.70;99.90
10249;DHT22;5169;50.560;9.714;2022-09-17T04:53:13;9.70;99.90
10249;DHT22;5169;50.560;9.714;2022-09-17T04:55:39;9.60;99.90
10249;DHT22;5169;50.560;9.714;2022-09-17T04:58:05;9.60;99.90
10249;DHT22;5169;50.560;9.714;2022-09-17T05:00:30;9.60;99.90
10249;DHT22;5169;50.560;9.714;2022-09-17T05:03:01;9.60;99.90
10249;DHT22;5169;50.560;9.714;2022-09-17T05:05:27;9.60;99.90
10249;DHT22;5169;50.560;9.714;2022-09-17T05:07:52;9.70;99.90
10249;DHT22;5169;50.560;9.714;2022-09-17T05:10:20;9.60;99.90
10249;DHT22;5169;50.560;9.714;2022-09-17T05:12:53;9.70;99.90
10249;DHT22;5169;50.560;9.714;2022-09-17T05:15:19;9.70;99.90
10249;DHT22;5169;50.560;9.714;2022-09-17T05:17:47;9.70;99.90
10249;DHT22;5169;50.560;9.714;2022-09-17T05:20:14;9.70;99.90
10249;DHT22;5169;50.560;9.714;2022-09-17T05:22:45;9.70;99.90
10249;DHT22;5169;50.560;9.714;2022-09-17T05:25:12;9.70;99.90
10249;DHT22;5169;50.560;9.714;2022-09-17T05:27:39;9.70;99.90
10249;DHT22;5169;50.560;9.714;2022-09-17T05:30:05;9.70;99.90
10249;DHT22;5169;50.560;9.714;2022-09-17T05:32:35;9.70;99.90
10249;DHT22;5169;50.560;9.714;2022-09-17T05:35:04;9.70;99.90
10249;DHT22;5169;50.560;9.714;2022-09-17T05:37:32;9.80;99.90
10249;DHT22;5169;50.560;9.714;2022-09-17T05:39:58;9.80;99.90
10249;DHT22;5169;50.560;9.714;2022-09-17T05:42:26;9.80;99.90
10249;DHT22;5169;50.560;9.714;2022-09-17T05:44:52;9.70;99.90
10249;DHT22;5169;50.560;9.714;2022-09-17T05:47:24;9.70;99.90
10249;DHT22;5169;50.560;9.714;2022-09-17T05:49:50;9.70;99.90
10249;DHT22;5169;50.560;9.714;2022-09-17T05:52:18;9.60;99.90
10249;DHT22;5169;50.560;9.714;2022-09-17T05:54:44;9.60;99.90
10249;DHT22;5169;50.560;9.714;2022-09-17T05:57:13;9.70;99.90
10249;DHT22;5169;50.560;9.714;2022-09-17T05:59:40;9.60;99.90
10249;DHT22;5169;50.560;9.714;2022-09-17T06:02:05;9.60;99.90
10249;DHT22;5169;50.560;9.714;2022-09-17T06:04:31;9.50;99.90
10249;DHT22;5169;50.560;9.714;2022-09-17T06:06:57;9.60;99.90
10249;DHT22;5169;50.560;9.714;2022-09-17T06:09:22;9.60;99.90
10249;DHT22;5169;50.560;9.714;2022-09-17T06:11:51;9.50;99.90
10249;DHT22;5169;50.560;9.714;2022-09-17T06:14:17;9.60;99.90
10249;DHT22;5169;50.560;9.714;2022-09-17T06:16:42;9.60;99.90
10249;DHT22;5169;50.560;9.714;2022-09-17T06:19:08;9.60;99.90
10249;DHT22;5169;50.560;9.714;2022-09-17T06:21:36;9.60;99.90
10249;DHT22;5169;50.560;9.714;2022-09-17T06:24:02;9.50;99.90
10249;DHT22;5169;50.560;9.714;2022-09-17T06:26:27;9.60;99.90
10249;DHT22;5169;50.560;9.714;2022-09-17T06:28:53;9.70;99.90
10249;DHT22;5169;50.560;9.714;2022-09-17T06:31:19;9.60;99.90
10249;DHT22;5169;50.560;9.714;2022-09-17T06:33:44;9.60;99.90
10249;DHT22;5169;50.560;9.714;2022-09-17T06:36:12;9.50;99.90
10249;DHT22;5169;50.560;9.714;2022-09-17T06:38:40;9.50;99.90
10249;DHT22;5169;50.560;9.714;2022-09-17T06:41:06;9.50;99.90
10249;DHT22;5169;50.560;9.714;2022-09-17T06:43:35;9.60;99.90
10249;DHT22;5169;50.560;9.714;2022-09-17T06:46:02;9.60;99.90
10249;DHT22;5169;50.560;9.714;2022-09-17T06:48:32;9.70;99.90
10249;DHT22;5169;50.560;9.714;2022-09-17T06:51:07;9.70;99.90
10249;DHT22;5169;50.560;9.714;2022-09-17T06:53:34;9.80;99.90
10249;DHT22;5169;50.560;9.714;2022-09-17T06:56:01;9.90;99.90
10249;DHT22;5169;50.560;9.714;2022-09-17T06:58:28;9.80;99.90
10249;DHT22;5169;50.560;9.714;2022-09-17T07:00:58;10.00;99.90
10249;DHT22;5169;50.560;9.714;2022-09-17T07:03:25;9.90;99.90
10249;DHT22;5169;50.560;9.714;2022-09-17T07:05:51;10.00;99.90
10249;DHT22;5169;50.560;9.714;2022-09-17T07:08:16;10.10;99.90
10249;DHT22;5169;50.560;9.714;2022-09-17T07:10:42;10.20;99.90
10249;DHT22;5169;50.560;9.714;2022-09-17T07:13:08;10.30;99.90
10249;DHT22;5169;50.560;9.714;2022-09-17T07:15:34;10.50;99.90
10249;DHT22;5169;50.560;9.714;2022-09-17T07:18:09;10.70;99.90
10249;DHT22;5169;50.560;9.714;2022-09-17T07:20:36;11.00;99.90
10249;DHT22;5169;50.560;9.714;2022-09-17T07:23:04;11.30;99.90
10249;DHT22;5169;50.560;9.714;2022-09-17T07:25:29;11.20;99.90
10249;DHT22;5169;50.560;9.714;2022-09-17T07:27:55;11.30;99.90
10249;DHT22;5169;50.560;9.714;2022-09-17T07:30:21;11.30;99.90
10249;DHT22;5169;50.560;9.714;2022-09-17T07:32:47;11.40;99.90
10249;DHT22;5169;50.560;9.714;2022-09-17T07:35:12;11.50;99.90
10249;DHT22;5169;50.560;9.714;2022-09-17T07:37:38;11.70;99.90
10249;DHT22;5169;50.560;9.714;2022-09-17T07:40:05;11.80;99.90
10249;DHT22;5169;50.560;9.714;2022-09-17T07:42:33;11.90;99.90
10249;DHT22;5169;50.560;9.714;2022-09-17T07:44:59;12.20;99.90
10249;DHT22;5169;50.560;9.714;2022-09-17T07:47:25;12.20;99.90
10249;DHT22;5169;50.560;9.714;2022-09-17T07:49:53;12.30;99.90
10249;DHT22;5169;50.560;9.714;2022-09-17T07:52:22;12.30;99.90
10249;DHT22;5169;50.560;9.714;2022-09-17T07:54:47;12.20;99.90
10249;DHT22;5169;50.560;9.714;2022-09-17T07:57:13;12.00;99.90
10249;DHT22;5169;50.560;9.714;2022-09-17T07:59:41;12.00;99.90
10249;DHT22;5169;50.560;9.714;2022-09-17T08:02:11;12.10;99.90
10249;DHT22;5169;50.560;9.714;2022-09-17T08:04:40;12.20;99.90
10249;DHT22;5169;50.560;9.714;2022-09-17T08:07:06;12.30;99.90
10249;DHT22;5169;50.560;9.714;2022-09-17T08:09:31;12.40;99.90
10249;DHT22;5169;50.560;9.714;2022-09-17T08:12:00;12.30;99.90
10249;DHT22;5169;50.560;9.714;2022-09-17T08:14:27;12.20;99.90
10249;DHT22;5169;50.560;9.714;2022-09-17T08:16:53;12.30;99.90
10249;DHT22;5169;50.560;9.714;2022-09-17T08:19:19;12.40;99.90
10249;DHT22;5169;50.560;9.714;2022-09-17T08:21:47;12.50;99.90
10249;DHT22;5169;50.560;9.714;2022-09-17T08:24:14;12.70;99.90
10249;DHT22;5169;50.560;9.714;2022-09-17T08:26:40;12.90;99.90
10249;DHT22;5169;50.560;9.714;2022-09-17T08:29:06;12.90;99.90
10249;DHT22;5169;50.560;9.714;2022-09-17T08:31:32;13.00;99.90
10249;DHT22;5169;50.560;9.714;2022-09-17T08:33:57;13.30;99.90
10249;DHT22;5169;50.560;9.714;2022-09-17T08:36:24;13.40;99.90
10249;DHT22;5169;50.560;9.714;2022-09-17T08:38:53;13.40;99.90
10249;DHT22;5169;50.560;9.714;2022-09-17T08:41:35;13.10;99.90
10249;DHT22;5169;50.560;9.714;2022-09-17T08:44:22;12.80;99.90
10249;DHT22;5169;50.560;9.714;2022-09-17T08:47:01;12.80;99.90
10249;DHT22;5169;50.560;9.714;2022-09-17T08:57:38;13.10;99.90
10249;DHT22;5169;50.560;9.714;2022-09-17T09:00:12;12.80;99.90
10249;DHT22;5169;50.560;9.714;2022-09-17T09:02:58;12.70;99.90
10249;DHT22;5169;50.560;9.714;2022-09-17T09:10:59;12.50;99.90
10249;DHT22;5169;50.560;9.714;2022-09-17T09:13:39;12.80;99.90
10249;DHT22;5169;50.560;9.714;2022-09-17T09:16:13;13.10;99.90
10249;DHT22;5169;50.560;9.714;2022-09-17T09:18:40;13.50;99.90
10249;DHT22;5169;50.560;9.714;2022-09-17T09:21:26;14.00;99.90
10249;DHT22;5169;50.560;9.714;2022-09-17T09:31:41;14.30;99.90
10249;DHT22;5169;50.560;9.714;2022-09-17T09:34:12;14.10;99.90
10249;DHT22;5169;50.560;9.714;2022-09-17T09:36:38;14.00;99.90
10249;DHT22;5169;50.560;9.714;2022-09-17T09:39:19;14.00;99.90
10249;DHT22;5169;50.560;9.714;2022-09-17T09:41:59;13.90;99.90
10249;DHT22;5169;50.560;9.714;2022-09-17T09:44:29;14.00;99.90
10249;DHT22;5169;50.560;9.714;2022-09-17T09:49:50;14.30;99.90
10249;DHT22;5169;50.560;9.714;2022-09-17T10:00:58;13.20;99.90
10249;DHT22;5169;50.560;9.714;2022-09-17T10:03:27;12.60;99.90
10249;DHT22;5169;50.560;9.714;2022-09-17T10:06:06;12.30;99.90
10249;DHT22;5169;50.560;9.714;2022-09-17T10:08:37;12.30;99.90
10249;DHT22;5169;50.560;9.714;2022-09-17T10:11:25;12.30;99.90
10249;DHT22;5169;50.560;9.714;2022-09-17T10:13:49;12.40;99.90
10249;DHT22;5169;50.560;9.714;2022-09-17T10:16:21;13.10;99.90
10249;DHT22;5169;50.560;9.714;2022-09-17T10:18:50;13.80;99.90
10249;DHT22;5169;50.560;9.714;2022-09-17T10:21:39;13.90;99.90
10249;DHT22;5169;50.560;9.714;2022-09-17T10:24:37;13.80;99.90
10249;DHT22;5169;50.560;9.714;2022-09-17T10:27:06;13.50;99.90
10249;DHT22;5169;50.560;9.714;2022-09-17T10:29:48;12.30;99.90
10249;DHT22;5169;50.560;9.714;2022-09-17T10:32:19;11.50;99.90
10249;DHT22;5169;50.560;9.714;2022-09-17T10:35:05;11.10;99.90
10249;DHT22;5169;50.560;9.714;2022-09-17T10:37:52;11.00;99.90
10249;DHT22;5169;50.560;9.714;2022-09-17T10:42:45;11.40;99.90
10249;DHT22;5169;50.560;9.714;2022-09-17T10:45:28;11.90;99.90
10249;DHT22;5169;50.560;9.714;2022-09-17T10:47:56;12.60;99.90
10249;DHT22;5169;50.560;9.714;2022-09-17T10:50:32;13.50;99.90
10249;DHT22;5169;50.560;9.714;2022-09-17T10:53:02;14.50;99.90
10249;DHT22;5169;50.560;9.714;2022-09-17T10:55:44;15.30;99.90
10249;DHT22;5169;50.560;9.714;2022-09-17T10:58:32;16.50;99.90
10249;DHT22;5169;50.560;9.714;2022-09-17T11:01:25;17.00;99.90
10249;DHT22;5169;50.560;9.714;2022-09-17T11:04:20;17.50;99.90
10249;DHT22;5169;50.560;9.714;2022-09-17T11:12:14;20.90;98.20
10249;DHT22;5169;50.560;9.714;2022-09-17T11:23:45;22.40;91.50
10249;DHT22;5169;50.560;9.714;2022-09-17T11:29:08;23.40;88.90
10249;DHT22;5169;50.560;9.714;2022-09-17T11:34:34;20.20;91.50
10249;DHT22;5169;50.560;9.714;2022-09-17T11:39:59;16.50;97.90
10249;DHT22;5169;50.560;9.714;2022-09-17T11:42:32;17.10;98.20
10249;DHT22;5169;50.560;9.714;2022-09-17T11:45:04;18.90;95.60
10249;DHT22;5169;50.560;9.714;2022-09-17T11:47:57;21.50;93.00
10249;DHT22;5169;50.560;9.714;2022-09-17T11:50:31;23.70;87.50
10249;DHT22;5169;50.560;9.714;2022-09-17T11:53:42;24.90;80.30
10249;DHT22;5169;50.560;9.714;2022-09-17T11:56:22;25.90;78.40
10249;DHT22;5169;50.560;9.714;2022-09-17T11:59:08;25.30;74.70
10249;DHT22;5169;50.560;9.714;2022-09-17T12:02:00;25.10;76.90
10249;DHT22;5169;50.560;9.714;2022-09-17T12:04:45;25.10;72.80
10249;DHT22;5169;50.560;9.714;2022-09-17T12:09:52;23.00;80.00
10249;DHT22;5169;50.560;9.714;2022-09-17T12:12:23;23.40;75.50
10249;DHT22;5169;50.560;9.714;2022-09-17T12:15:33;23.50;75.00
10249;DHT22;5169;50.560;9.714;2022-09-17T12:20:37;22.30;78.20
10249;DHT22;5169;50.560;9.714;2022-09-17T12:23:10;22.40;76.20
10249;DHT22;5169;50.560;9.714;2022-09-17T12:26:04;23.50;75.20
10249;DHT22;5169;50.560;9.714;2022-09-17T12:28:54;24.30;72.50
10249;DHT22;5169;50.560;9.714;2022-09-17T12:32:11;24.20;69.30
10249;DHT22;5169;50.560;9.714;2022-09-17T12:37:15;19.80;81.80
10249;DHT22;5169;50.560;9.714;2022-09-17T12:39:57;19.20;84.80
10249;DHT22;5169;50.560;9.714;2022-09-17T12:53:21;20.40;81.80
10249;DHT22;5169;50.560;9.714;2022-09-17T12:55:59;19.40;84.20
10249;DHT22;5169;50.560;9.714;2022-09-17T12:58:41;18.80;83.40
10249;DHT22;5169;50.560;9.714;2022-09-17T13:01:28;18.50;86.50
10249;DHT22;5169;50.560;9.714;2022-09-17T13:12:25;20.30;79.70
10249;DHT22;5169;50.560;9.714;2022-09-17T13:17:57;19.10;86.50
10249;DHT22;5169;50.560;9.714;2022-09-17T13:20:48;18.60;86.70
10249;DHT22;5169;50.560;9.714;2022-09-17T13:26:07;18.50;88.80
10249;DHT22;5169;50.560;9.714;2022-09-17T13:28:42;17.90;90.00
10249;DHT22;5169;50.560;9.714;2022-09-17T13:31:11;17.00;89.50
10249;DHT22;5169;50.560;9.714;2022-09-17T13:36:47;16.50;92.10
10249;DHT22;5169;50.560;9.714;2022-09-17T13:44:41;16.40;93.00
10249;DHT22;5169;50.560;9.714;2022-09-17T13:49:48;16.40;91.00
10249;DHT22;5169;50.560;9.714;2022-09-17T13:52:34;16.30;91.90
10249;DHT22;5169;50.560;9.714;2022-09-17T13:55:03;16.50;91.40
10249;DHT22;5169;50.560;9.714;2022-09-17T13:57:31;16.70;91.00
10249;DHT22;5169;50.560;9.714;2022-09-17T14:00:00;16.60;90.10
10249;DHT22;5169;50.560;9.714;2022-09-17T14:02:30;16.50;90.80
10249;DHT22;5169;50.560;9.714;2022-09-17T14:05:20;16.40;90.60
10249;DHT22;5169;50.560;9.714;2022-09-17T14:07:49;16.10;92.10
10249;DHT22;5169;50.560;9.714;2022-09-17T14:24:03;14.90;99.70
10249;DHT22;5169;50.560;9.714;2022-09-17T14:29:24;14.10;99.90
10249;DHT22;5169;50.560;9.714;2022-09-17T14:31:55;13.80;99.90
10249;DHT22;5169;50.560;9.714;2022-09-17T14:34:22;13.60;99.90
10249;DHT22;5169;50.560;9.714;2022-09-17T14:36:49;13.40;99.90
10249;DHT22;5169;50.560;9.714;2022-09-17T14:39:26;13.30;99.90
10249;DHT22;5169;50.560;9.714;2022-09-17T14:41:53;13.10;99.90
10249;DHT22;5169;50.560;9.714;2022-09-17T14:44:27;13.10;99.90
10249;DHT22;5169;50.560;9.714;2022-09-17T14:47:06;12.90;99.90
10249;DHT22;5169;50.560;9.714;2022-09-17T14:49:37;13.10;99.90
10249;DHT22;5169;50.560;9.714;2022-09-17T14:52:37;13.20;99.90
10249;DHT22;5169;50.560;9.714;2022-09-17T14:55:25;13.50;99.90
10249;DHT22;5169;50.560;9.714;2022-09-17T14:57:58;13.60;99.90
10249;DHT22;5169;50.560;9.714;2022-09-17T15:00:36;13.60;99.90
10249;DHT22;5169;50.560;9.714;2022-09-17T15:03:04;13.90;99.90
10249;DHT22;5169;50.560;9.714;2022-09-17T15:05:32;13.90;99.90
10249;DHT22;5169;50.560;9.714;2022-09-17T15:11:01;13.70;99.90
10249;DHT22;5169;50.560;9.714;2022-09-17T15:13:33;13.60;99.90
10249;DHT22;5169;50.560;9.714;2022-09-17T15:16:19;13.60;99.90
10249;DHT22;5169;50.560;9.714;2022-09-17T15:19:00;13.70;99.90
10249;DHT22;5169;50.560;9.714;2022-09-17T15:21:42;13.60;99.90
10249;DHT22;5169;50.560;9.714;2022-09-17T15:26:39;13.20;99.90
10249;DHT22;5169;50.560;9.714;2022-09-17T15:29:06;13.30;99.90
10249;DHT22;5169;50.560;9.714;2022-09-17T15:31:37;13.40;99.90
10249;DHT22;5169;50.560;9.714;2022-09-17T15:34:03;13.20;99.90
10249;DHT22;5169;50.560;9.714;2022-09-17T15:36:29;13.10;99.90
10249;DHT22;5169;50.560;9.714;2022-09-17T15:38:57;13.10;99.90
10249;DHT22;5169;50.560;9.714;2022-09-17T15:46:35;13.30;99.90
10249;DHT22;5169;50.560;9.714;2022-09-17T15:49:02;13.20;99.90
10249;DHT22;5169;50.560;9.714;2022-09-17T15:51:33;13.20;99.90
10249;DHT22;5169;50.560;9.714;2022-09-17T15:54:03;13.20;99.90
10249;DHT22;5169;50.560;9.714;2022-09-17T15:56:34;13.20;99.90
10249;DHT22;5169;50.560;9.714;2022-09-17T15:59:27;13.20;99.90
10249;DHT22;5169;50.560;9.714;2022-09-17T16:01:53;13.30;99.90
10249;DHT22;5169;50.560;9.714;2022-09-17T16:04:31;13.50;99.90
10249;DHT22;5169;50.560;9.714;2022-09-17T16:09:47;13.40;99.90
10249;DHT22;5169;50.560;9.714;2022-09-17T16:12:22;13.40;99.90
10249;DHT22;5169;50.560;9.714;2022-09-17T16:14:55;13.40;99.90
10249;DHT22;5169;50.560;9.714;2022-09-17T16:19:53;13.40;99.90
10249;DHT22;5169;50.560;9.714;2022-09-17T16:22:20;13.30;99.90
10249;DHT22;5169;50.560;9.714;2022-09-17T16:24:46;13.30;99.90
10249;DHT22;5169;50.560;9.714;2022-09-17T16:27:26;13.20;99.90
10249;DHT22;5169;50.560;9.714;2022-09-17T16:30:04;13.20;99.90
10249;DHT22;5169;50.560;9.714;2022-09-17T16:32:34;13.00;99.90
10249;DHT22;5169;50.560;9.714;2022-09-17T16:34:59;12.70;99.90
10249;DHT22;5169;50.560;9.714;2022-09-17T16:37:27;12.60;99.90
10249;DHT22;5169;50.560;9.714;2022-09-17T16:39:55;12.60;99.90
10249;DHT22;5169;50.560;9.714;2022-09-17T16:42:21;12.70;99.90
10249;DHT22;5169;50.560;9.714;2022-09-17T16:44:47;12.60;99.90
10249;DHT22;5169;50.560;9.714;2022-09-17T16:47:15;12.40;99.90
10249;DHT22;5169;50.560;9.714;2022-09-17T16:49:40;12.40;99.90
10249;DHT22;5169;50.560;9.714;2022-09-17T16:52:06;12.30;99.90
10249;DHT22;5169;50.560;9.714;2022-09-17T16:54:32;12.30;99.90
10249;DHT22;5169;50.560;9.714;2022-09-17T16:56:57;12.30;99.90
10249;DHT22;5169;50.560;9.714;2022-09-17T16:59:25;12.20;99.90
10249;DHT22;5169;50.560;9.714;2022-09-17T17:01:51;12.10;99.90
10249;DHT22;5169;50.560;9.714;2022-09-17T17:04:16;12.00;99.90
10249;DHT22;5169;50.560;9.714;2022-09-17T17:06:42;12.00;99.90
10249;DHT22;5169;50.560;9.714;2022-09-17T17:09:08;11.90;99.90
10249;DHT22;5169;50.560;9.714;2022-09-17T17:11:36;11.90;99.90
10249;DHT22;5169;50.560;9.714;2022-09-17T17:14:04;11.80;99.90
10249;DHT22;5169;50.560;9.714;2022-09-17T17:16:30;11.80;99.90
10249;DHT22;5169;50.560;9.714;2022-09-17T17:18:56;11.80;99.90
10249;DHT22;5169;50.560;9.714;2022-09-17T17:21:24;11.90;99.90
10249;DHT22;5169;50.560;9.714;2022-09-17T17:23:52;11.80;99.90
10249;DHT22;5169;50.560;9.714;2022-09-17T17:26:18;11.80;99.90
10249;DHT22;5169;50.560;9.714;2022-09-17T17:28:44;11.80;99.90
10249;DHT22;5169;50.560;9.714;2022-09-17T17:31:10;11.70;99.90
10249;DHT22;5169;50.560;9.714;2022-09-17T17:33:36;11.60;99.90
10249;DHT22;5169;50.560;9.714;2022-09-17T17:36:03;11.50;99.90
10249;DHT22;5169;50.560;9.714;2022-09-17T17:38:31;11.50;99.90
10249;DHT22;5169;50.560;9.714;2022-09-17T17:41:08;11.40;99.90
10249;DHT22;5169;50.560;9.714;2022-09-17T17:43:34;11.30;99.90
10249;DHT22;5169;50.560;9.714;2022-09-17T17:46:07;11.30;99.90
10249;DHT22;5169;50.560;9.714;2022-09-17T17:48:36;11.10;99.90
10249;DHT22;5169;50.560;9.714;2022-09-17T17:51:11;11.10;99.90
10249;DHT22;5169;50.560;9.714;2022-09-17T17:53:43;11.00;99.90
10249;DHT22;5169;50.560;9.714;2022-09-17T17:56:12;11.00;99.90
10249;DHT22;5169;50.560;9.714;2022-09-17T17:58:41;11.00;99.90
10249;DHT22;5169;50.560;9.714;2022-09-17T18:01:15;10.90;99.90
10249;DHT22;5169;50.560;9.714;2022-09-17T18:03:41;10.90;99.90
10249;DHT22;5169;50.560;9.714;2022-09-17T18:06:09;10.90;99.90
10249;DHT22;5169;50.560;9.714;2022-09-17T18:08:36;10.90;99.90
10249;DHT22;5169;50.560;9.714;2022-09-17T18:11:03;10.90;99.90
10249;DHT22;5169;50.560;9.714;2022-09-17T18:13:32;10.80;99.90
10249;DHT22;5169;50.560;9.714;2022-09-17T18:15:59;10.70;99.90
10249;DHT22;5169;50.560;9.714;2022-09-17T18:18:30;10.70;99.90
10249;DHT22;5169;50.560;9.714;2022-09-17T18:21:04;10.50;99.90
10249;DHT22;5169;50.560;9.714;2022-09-17T18:23:35;10.40;99.90
10249;DHT22;5169;50.560;9.714;2022-09-17T18:26:01;10.40;99.90
10249;DHT22;5169;50.560;9.714;2022-09-17T18:28:28;10.40;99.90
10249;DHT22;5169;50.560;9.714;2022-09-17T18:30:55;10.40;99.90
10249;DHT22;5169;50.560;9.714;2022-09-17T18:33:25;10.40;99.90
10249;DHT22;5169;50.560;9.714;2022-09-17T18:36:00;10.20;99.90
10249;DHT22;5169;50.560;9.714;2022-09-17T18:38:26;10.30;99.90
10249;DHT22;5169;50.560;9.714;2022-09-17T18:40:52;10.30;99.90
10249;DHT22;5169;50.560;9.714;2022-09-17T18:43:20;10.20;99.90
10249;DHT22;5169;50.560;9.714;2022-09-17T18:45:56;10.20;99.90
10249;DHT22;5169;50.560;9.714;2022-09-17T18:48:23;10.10;99.90
10249;DHT22;5169;50.560;9.714;2022-09-17T18:50:59;10.20;99.90
10249;DHT22;5169;50.560;9.714;2022-09-17T18:53:29;10.10;99.90
10249;DHT22;5169;50.560;9.714;2022-09-17T18:55:58;10.10;99.90
10249;DHT22;5169;50.560;9.714;2022-09-17T18:58:27;10.10;99.90
10249;DHT22;5169;50.560;9.714;2022-09-17T19:00:52;10.10;99.90
10249;DHT22;5169;50.560;9.714;2022-09-17T19:03:20;10.10;99.90